createdAt,value
2017-12-20T00:00:13.450Z,102568.92
2017-12-20T00:02:41.817Z,102564.54
2017-12-20T00:05:10.251Z,102564.98
2017-12-20T00:07:38.627Z,102557.97
2017-12-20T00:10:06.948Z,102560.18
2017-12-20T00:12:35.282Z,102554.46
2017-12-20T00:15:03.618Z,102545.22
2017-12-20T00:17:32.015Z,102552.69
2017-12-20T00:20:00.509Z,102549.13
2017-12-20T00:22:28.881Z,102544.74
2017-12-20T00:24:57.260Z,102544.31
2017-12-20T00:27:25.638Z,102543.87
2017-12-20T00:29:53.963Z,102535.55
2017-12-20T00:32:22.303Z,102531.15
2017-12-20T00:34:50.341Z,102535.55
2017-12-20T00:37:18.402Z,102531.17
2017-12-20T00:39:46.438Z,102535.53
2017-12-20T00:42:14.879Z,102530.27
2017-12-20T00:44:43.198Z,102529.83
2017-12-20T00:47:11.538Z,102536.44
2017-12-20T00:49:39.854Z,102541.25
2017-12-20T00:52:08.198Z,102538.59
2017-12-20T00:54:36.515Z,102542.11
2017-12-20T00:57:04.853Z,102546.95
2017-12-20T00:59:33.194Z,102548.28
2017-12-20T01:02:01.515Z,102546.95
2017-12-20T01:04:29.921Z,102545.66
2017-12-20T01:06:58.236Z,102551.33
2017-12-20T01:09:26.577Z,102550.47
2017-12-20T01:11:54.900Z,102553.99
2017-12-20T01:14:23.238Z,102564.58
2017-12-20T01:16:51.558Z,102552.25
2017-12-20T01:19:19.919Z,102556.66
2017-12-20T01:21:48.238Z,102555.34
2017-12-20T01:24:16.583Z,102555.77
2017-12-20T01:26:44.894Z,102556.64
2017-12-20T01:29:13.234Z,102553.11
2017-12-20T01:31:41.554Z,102552.24
2017-12-20T01:34:09.977Z,102552.67
2017-12-20T01:36:38.294Z,102551.31
2017-12-20T01:39:06.738Z,102544.27
2017-12-20T01:41:35.150Z,102554.41
2017-12-20T01:44:03.469Z,102550.44
2017-12-20T01:46:31.865Z,102547.80
2017-12-20T01:49:00.238Z,102548.67
2017-12-20T01:51:28.562Z,102550.91
2017-12-20T01:53:56.902Z,102546.51
2017-12-20T01:56:25.274Z,102550.46
2017-12-20T01:58:53.610Z,102550.88
2017-12-20T02:01:21.936Z,102549.13
2017-12-20T02:03:50.322Z,102554.41
2017-12-20T02:06:18.642Z,102555.28
2017-12-20T02:08:46.982Z,102551.79
2017-12-20T02:11:15.334Z,102550.02
2017-12-20T02:13:43.708Z,102553.97
2017-12-20T02:16:12.024Z,102556.61
2017-12-20T02:18:40.422Z,102559.72
2017-12-20T02:21:08.772Z,102561.00
2017-12-20T02:23:37.115Z,102555.75
2017-12-20T02:26:05.430Z,102560.14
2017-12-20T02:28:33.771Z,102563.69
2017-12-20T02:31:02.143Z,102564.55
2017-12-20T02:33:31.364Z,102560.16
2017-12-20T02:35:59.728Z,102561.93
2017-12-20T02:38:37.922Z,102560.55
2017-12-20T02:41:06.247Z,102554.44
2017-12-20T02:43:34.588Z,102562.31
2017-12-20T02:46:02.923Z,102558.81
2017-12-20T02:48:31.261Z,102559.70
2017-12-20T02:50:59.602Z,102566.75
2017-12-20T02:53:27.938Z,102561.87
2017-12-20T02:55:56.399Z,102566.30
2017-12-20T02:58:24.737Z,102564.98
2017-12-20T03:00:53.114Z,102562.31
2017-12-20T03:03:21.446Z,102557.91
2017-12-20T03:05:49.777Z,102556.15
2017-12-20T03:08:18.095Z,102552.61
2017-12-20T03:10:46.421Z,102557.03
2017-12-20T03:13:14.770Z,102546.03
2017-12-20T03:15:43.103Z,102549.98
2017-12-20T03:18:11.424Z,102548.24
2017-12-20T03:20:39.754Z,102553.06
2017-12-20T03:23:08.104Z,102550.45
2017-12-20T03:25:36.510Z,102554.86
2017-12-20T03:28:04.854Z,102555.33
2017-12-20T03:30:33.191Z,102554.84
2017-12-20T03:33:01.535Z,102551.78
2017-12-20T03:35:29.925Z,102557.91
2017-12-20T03:37:58.231Z,102548.23
2017-12-20T03:40:26.643Z,102546.91
2017-12-20T03:42:55.018Z,102548.70
2017-12-20T03:45:23.354Z,102543.88
2017-12-20T03:47:51.674Z,102535.08
2017-12-20T03:50:20.006Z,102523.63
2017-12-20T03:52:48.318Z,102514.84
2017-12-20T03:55:16.698Z,102516.56
2017-12-20T03:57:45.006Z,102512.63
2017-12-20T04:00:13.346Z,102515.66
2017-12-20T04:02:41.807Z,102519.62
2017-12-20T04:05:10.086Z,102521.81
2017-12-20T04:07:38.416Z,102524.05
2017-12-20T04:10:06.815Z,102517.42
2017-12-20T04:12:35.110Z,102520.05
2017-12-20T04:15:03.529Z,102528.39
2017-12-20T04:17:31.890Z,102528.86
2017-12-20T04:20:00.266Z,102530.14
2017-12-20T04:22:28.624Z,102522.23
2017-12-20T04:24:57.027Z,102516.50
2017-12-20T04:27:25.338Z,102517.86
2017-12-20T04:29:53.774Z,102513.88
2017-12-20T04:32:22.087Z,102515.20
2017-12-20T04:34:50.431Z,102511.69
2017-12-20T04:37:18.803Z,102511.69
2017-12-20T04:39:47.186Z,102518.70
2017-12-20T04:42:15.490Z,102521.80
2017-12-20T04:44:43.839Z,102522.67
2017-12-20T04:47:12.142Z,102527.95
2017-12-20T04:49:40.473Z,102524.00
2017-12-20T04:52:08.794Z,102521.35
2017-12-20T04:54:37.142Z,102526.69
2017-12-20T04:57:05.459Z,102530.16
2017-12-20T04:59:33.889Z,102521.39
2017-12-20T05:02:02.197Z,102527.53
2017-12-20T05:04:30.534Z,102529.75
2017-12-20T05:06:58.846Z,102531.04
2017-12-20T05:09:27.193Z,102534.61
2017-12-20T05:11:55.610Z,102531.05
2017-12-20T05:14:23.924Z,102535.92
2017-12-20T05:16:52.364Z,102535.45
2017-12-20T05:19:20.637Z,102538.11
2017-12-20T05:21:49.104Z,102540.27
2017-12-20T05:24:17.504Z,102545.99
2017-12-20T05:26:45.939Z,102551.28
2017-12-20T05:29:14.322Z,102549.52
2017-12-20T05:31:42.676Z,102549.49
2017-12-20T05:34:10.986Z,102553.45
2017-12-20T05:36:39.326Z,102549.98
2017-12-20T05:39:07.662Z,102548.64
2017-12-20T05:41:36.103Z,102553.06
2017-12-20T05:44:04.411Z,102551.73
2017-12-20T05:46:32.746Z,102562.25
2017-12-20T05:49:01.130Z,102560.90
2017-12-20T05:51:29.492Z,102564.86
2017-12-20T05:53:57.802Z,102567.94
2017-12-20T05:56:26.142Z,102576.27
2017-12-20T05:58:54.470Z,102575.39
2017-12-20T06:01:22.874Z,102576.28
2017-12-20T06:03:51.196Z,102577.17
2017-12-20T06:06:19.531Z,102575.89
2017-12-20T06:08:47.919Z,102582.45
2017-12-20T06:11:16.289Z,102578.45
2017-12-20T06:13:44.643Z,102584.67
2017-12-20T06:16:13.078Z,102577.60
2017-12-20T06:18:41.459Z,102571.90
2017-12-20T06:21:09.840Z,102582.91
2017-12-20T06:23:38.212Z,102582.00
2017-12-20T06:26:06.590Z,102584.59
2017-12-20T06:28:34.915Z,102593.02
2017-12-20T06:31:03.327Z,102592.16
2017-12-20T06:33:31.681Z,102594.37
2017-12-20T06:36:00.078Z,102596.57
2017-12-20T06:38:28.489Z,102596.11
2017-12-20T06:40:56.851Z,102592.59
2017-12-20T06:43:25.217Z,102598.77
2017-12-20T06:45:53.688Z,102597.42
2017-12-20T06:48:22.061Z,102592.58
2017-12-20T06:50:50.470Z,102598.72
2017-12-20T06:53:18.815Z,102594.35
2017-12-20T06:55:47.163Z,102593.05
2017-12-20T06:58:15.487Z,102603.63
2017-12-20T07:00:43.830Z,102596.14
2017-12-20T07:03:12.158Z,102601.84
2017-12-20T07:05:40.508Z,102604.88
2017-12-20T07:08:08.835Z,102607.95
2017-12-20T07:10:37.236Z,102617.17
2017-12-20T07:13:05.589Z,102611.47
2017-12-20T07:15:33.923Z,102611.47
2017-12-20T07:18:02.276Z,102617.64
2017-12-20T07:20:30.622Z,102620.73
2017-12-20T07:22:59.020Z,102619.42
2017-12-20T07:25:27.343Z,102619.41
2017-12-20T07:27:55.694Z,102622.50
2017-12-20T07:30:24.032Z,102624.28
2017-12-20T07:32:52.371Z,102625.18
2017-12-20T07:35:20.698Z,102630.44
2017-12-20T07:37:49.039Z,102632.67
2017-12-20T07:40:17.361Z,102635.68
2017-12-20T07:42:45.703Z,102643.12
2017-12-20T07:45:14.022Z,102637.88
2017-12-20T07:47:42.360Z,102637.02
2017-12-20T07:50:10.686Z,102640.98
2017-12-20T07:52:39.027Z,102639.18
2017-12-20T07:55:07.343Z,102636.13
2017-12-20T07:57:35.683Z,102640.52
2017-12-20T08:00:04.020Z,102638.78
2017-12-20T08:02:32.366Z,102637.02
2017-12-20T08:05:00.702Z,102641.85
2017-12-20T08:07:29.059Z,102646.70
2017-12-20T08:09:57.374Z,102653.69
2017-12-20T08:12:25.718Z,102651.09
2017-12-20T08:14:54.530Z,102656.42
2017-12-20T08:17:22.874Z,102663.45
2017-12-20T08:19:51.194Z,102656.83
2017-12-20T08:22:19.539Z,102659.95
2017-12-20T08:24:47.853Z,102658.19
2017-12-20T08:27:16.199Z,102655.52
2017-12-20T08:29:44.538Z,102659.95
2017-12-20T08:32:12.895Z,102657.71
2017-12-20T08:34:41.319Z,102657.75
2017-12-20T08:37:09.662Z,102659.53
2017-12-20T08:39:37.986Z,102655.59
2017-12-20T08:42:06.330Z,102661.72
2017-12-20T08:44:34.653Z,102660.81
2017-12-20T08:47:02.999Z,102670.45
2017-12-20T08:49:31.325Z,102678.42
2017-12-20T08:51:59.966Z,102684.56
2017-12-20T08:54:29.050Z,102683.66
2017-12-20T08:56:57.390Z,102683.64
2017-12-20T08:59:25.715Z,102683.93
2017-12-20T09:01:54.077Z,102682.11
2017-12-20T09:04:22.397Z,102683.47
2017-12-20T09:06:50.744Z,102687.41
2017-12-20T09:09:19.055Z,102682.14
2017-12-20T09:11:47.420Z,102684.28
2017-12-20T09:14:15.791Z,102683.87
2017-12-20T09:16:44.466Z,102679.88
2017-12-20T09:19:12.907Z,102684.69
2017-12-20T09:21:41.284Z,102679.86
2017-12-20T09:24:09.667Z,102678.95
2017-12-20T09:26:38.046Z,102677.19
2017-12-20T09:29:06.449Z,102676.30
2017-12-20T09:31:34.844Z,102682.42
2017-12-20T09:34:03.271Z,102685.52
2017-12-20T09:36:31.717Z,102682.45
2017-12-20T09:39:00.194Z,102686.86
2017-12-20T09:41:28.571Z,102681.16
2017-12-20T09:43:57.007Z,102683.34
2017-12-20T09:46:25.387Z,102682.90
2017-12-20T09:48:53.755Z,102679.80
2017-12-20T09:51:22.285Z,102686.84
2017-12-20T09:53:50.734Z,102682.47
2017-12-20T09:56:19.094Z,102675.86
2017-12-20T09:58:47.467Z,102674.55
2017-12-20T10:01:16.137Z,102677.58
2017-12-20T10:03:44.761Z,102678.88
2017-12-20T10:06:14.773Z,102675.83
2017-12-20T10:08:43.108Z,102683.77
2017-12-20T10:11:11.443Z,102684.22
2017-12-20T10:13:39.795Z,102683.29
2017-12-20T10:16:08.123Z,102684.58
2017-12-20T10:18:36.470Z,102686.38
2017-12-20T10:21:04.786Z,102680.71
2017-12-20T10:23:33.129Z,102674.97
2017-12-20T10:26:01.453Z,102681.13
2017-12-20T10:28:29.811Z,102677.67
2017-12-20T10:30:58.135Z,102670.63
2017-12-20T10:33:26.488Z,102670.66
2017-12-20T10:35:54.804Z,102673.28
2017-12-20T10:38:23.142Z,102677.70
2017-12-20T10:40:51.475Z,102675.06
2017-12-20T10:43:20.665Z,102673.28
2017-12-20T10:45:48.989Z,102670.22
2017-12-20T10:48:17.346Z,102670.66
2017-12-20T10:50:45.671Z,102671.97
2017-12-20T10:53:14.358Z,102672.41
2017-12-20T10:55:42.684Z,102668.91
2017-12-20T10:58:11.027Z,102668.91
2017-12-20T11:00:39.350Z,102669.78
2017-12-20T11:03:07.695Z,102673.73
2017-12-20T11:05:36.022Z,102676.81
2017-12-20T11:08:04.366Z,102674.19
2017-12-20T11:10:32.690Z,102674.20
2017-12-20T11:13:01.596Z,102673.74
2017-12-20T11:15:29.910Z,102674.20
2017-12-20T11:17:58.270Z,102675.97
2017-12-20T11:20:26.589Z,102675.96
2017-12-20T11:22:55.904Z,102670.69
2017-12-20T11:25:24.255Z,102671.13
2017-12-20T11:27:52.586Z,102665.42
2017-12-20T11:30:20.935Z,102668.05
2017-12-20T11:32:49.259Z,102663.64
2017-12-20T11:35:17.602Z,102663.22
2017-12-20T11:37:45.931Z,102657.48
2017-12-20T11:40:14.269Z,102660.58
2017-12-20T11:42:42.594Z,102657.48
2017-12-20T11:45:10.954Z,102666.28
2017-12-20T11:47:39.279Z,102657.05
2017-12-20T11:50:07.622Z,102654.80
2017-12-20T11:52:35.947Z,102648.01
2017-12-20T11:55:04.302Z,102651.12
2017-12-20T11:57:32.626Z,102640.63
2017-12-20T12:00:00.991Z,102644.22
2017-12-20T12:02:29.314Z,102641.79
2017-12-20T12:04:57.678Z,102634.23
2017-12-20T12:07:26.012Z,102637.69
2017-12-20T12:09:54.381Z,102632.84
2017-12-20T12:12:22.722Z,102631.16
2017-12-20T12:14:51.070Z,102630.05
2017-12-20T12:17:19.397Z,102633.87
2017-12-20T12:19:47.753Z,102631.16
2017-12-20T12:22:16.075Z,102645.59
2017-12-20T12:24:44.422Z,102637.84
2017-12-20T12:27:12.755Z,102634.77
2017-12-20T12:29:51.989Z,102629.21
2017-12-20T12:32:33.023Z,102624.88
2017-12-20T12:35:01.397Z,102620.45
2017-12-20T12:37:29.719Z,102617.84
2017-12-20T12:39:58.965Z,102621.81
2017-12-20T12:42:27.428Z,102615.65
2017-12-20T12:44:55.778Z,102620.50
2017-12-20T12:47:24.116Z,102624.91
2017-12-20T12:49:52.475Z,102617.88
2017-12-20T12:52:20.821Z,102620.07
2017-12-20T12:54:49.199Z,102617.00
2017-12-20T12:57:17.526Z,102617.42
2017-12-20T12:59:45.861Z,102619.20
2017-12-20T13:02:14.206Z,102618.76
2017-12-20T13:04:42.543Z,102618.77
2017-12-20T13:07:10.897Z,102609.50
2017-12-20T13:09:39.222Z,102611.70
2017-12-20T13:12:07.578Z,102612.14
2017-12-20T13:14:35.915Z,102617.44
2017-12-20T13:17:05.078Z,102617.42
2017-12-20T13:19:33.421Z,102617.42
2017-12-20T13:22:02.475Z,102621.84
2017-12-20T13:24:30.797Z,102624.03
2017-12-20T13:26:59.667Z,102620.53
2017-12-20T13:29:27.990Z,102626.69
2017-12-20T13:31:56.346Z,102622.27
2017-12-20T13:34:24.684Z,102628.00
2017-12-20T13:36:53.042Z,102629.31
2017-12-20T13:39:21.370Z,102625.34
2017-12-20T13:41:49.722Z,102631.52
2017-12-20T13:44:18.049Z,102628.89
2017-12-20T13:46:47.411Z,102627.55
2017-12-20T13:49:15.758Z,102628.41
2017-12-20T13:51:44.210Z,102629.77
2017-12-20T13:54:12.631Z,102631.97
2017-12-20T13:56:40.978Z,102631.94
2017-12-20T13:59:09.387Z,102637.69
2017-12-20T14:01:37.797Z,102631.50
2017-12-20T14:04:06.310Z,102630.64
2017-12-20T14:06:35.402Z,102628.42
2017-12-20T14:09:03.739Z,102620.48
2017-12-20T14:11:33.023Z,102626.24
2017-12-20T14:14:01.401Z,102622.72
2017-12-20T14:16:29.750Z,102625.37
2017-12-20T14:18:58.154Z,102624.02
2017-12-20T14:21:26.535Z,102624.45
2017-12-20T14:23:56.008Z,102627.10
2017-12-20T14:26:24.557Z,102628.00
2017-12-20T14:28:53.575Z,102619.64
2017-12-20T14:31:22.935Z,102620.95
2017-12-20T14:33:51.541Z,102624.47
2017-12-20T14:36:19.894Z,102624.90
2017-12-20T14:38:48.250Z,102619.64
2017-12-20T14:41:16.979Z,102628.42
2017-12-20T14:43:45.450Z,102628.01
2017-12-20T14:46:13.911Z,102632.84
2017-12-20T14:48:42.264Z,102633.29
2017-12-20T14:51:10.595Z,102623.14
2017-12-20T14:53:38.942Z,102626.67
2017-12-20T14:56:07.295Z,102621.84
2017-12-20T14:58:35.649Z,102634.58
2017-12-20T15:01:03.981Z,102632.39
2017-12-20T15:03:32.387Z,102631.53
2017-12-20T15:06:00.728Z,102638.57
2017-12-20T15:08:29.149Z,102644.70
2017-12-20T15:10:57.482Z,102645.15
2017-12-20T15:13:25.859Z,102652.21
2017-12-20T15:15:54.231Z,102663.22
2017-12-20T15:18:22.618Z,102659.23
2017-12-20T15:20:50.959Z,102652.20
2017-12-20T15:23:19.314Z,102657.94
2017-12-20T15:25:48.754Z,102654.86
2017-12-20T15:28:18.021Z,102656.62
2017-12-20T15:30:47.135Z,102653.07
2017-12-20T15:33:15.543Z,102652.65
2017-12-20T15:35:43.882Z,102650.44
2017-12-20T15:38:12.236Z,102645.17
2017-12-20T15:40:40.608Z,102642.96
2017-12-20T15:43:08.968Z,102648.67
2017-12-20T15:45:37.295Z,102649.11
2017-12-20T15:48:05.646Z,102646.92
2017-12-20T15:50:34.037Z,102652.59
2017-12-20T15:53:02.418Z,102651.28
2017-12-20T15:55:30.793Z,102660.12
2017-12-20T15:57:59.142Z,102661.00
2017-12-20T16:00:29.658Z,102659.23
2017-12-20T16:02:58.038Z,102667.19
2017-12-20T16:05:26.371Z,102668.07
2017-12-20T16:07:54.747Z,102671.16
2017-12-20T16:10:23.861Z,102673.33
2017-12-20T16:12:52.214Z,102672.91
2017-12-20T16:15:20.550Z,102666.73
2017-12-20T16:17:48.893Z,102673.33
2017-12-20T16:20:17.243Z,102672.02
2017-12-20T16:22:45.588Z,102677.75
2017-12-20T16:25:13.910Z,102676.86
2017-12-20T16:27:42.242Z,102676.86
2017-12-20T16:30:10.590Z,102683.48
2017-12-20T16:32:38.922Z,102685.69
2017-12-20T16:35:07.278Z,102684.80
2017-12-20T16:37:35.615Z,102687.45
2017-12-20T16:40:03.981Z,102676.88
2017-12-20T16:42:32.314Z,102671.59
2017-12-20T16:45:00.799Z,102676.44
2017-12-20T16:47:29.130Z,102668.94
2017-12-20T16:49:57.478Z,102668.50
2017-12-20T16:52:25.802Z,102672.46
2017-12-20T16:54:54.150Z,102669.80
2017-12-20T16:57:22.478Z,102667.61
2017-12-20T16:59:50.826Z,102667.16
2017-12-20T17:02:19.451Z,102667.60
2017-12-20T17:04:47.888Z,102658.81
2017-12-20T17:07:16.210Z,102657.03
2017-12-20T17:09:44.566Z,102656.15
2017-12-20T17:12:12.902Z,102658.35
2017-12-20T17:14:41.263Z,102657.45
2017-12-20T17:17:09.598Z,102661.44
2017-12-20T17:19:37.950Z,102654.41
2017-12-20T17:22:06.287Z,102652.63
2017-12-20T17:24:34.641Z,102644.72
2017-12-20T17:27:02.974Z,102649.98
2017-12-20T17:29:31.329Z,102662.33
2017-12-20T17:31:59.661Z,102651.77
2017-12-20T17:34:28.025Z,102654.38
2017-12-20T17:36:56.362Z,102670.23
2017-12-20T17:39:24.723Z,102667.17
2017-12-20T17:41:53.074Z,102670.27
2017-12-20T17:44:21.436Z,102663.67
2017-12-20T17:46:49.758Z,102655.73
2017-12-20T17:49:18.839Z,102651.34
2017-12-20T17:51:47.170Z,102650.00
2017-12-20T17:54:15.531Z,102650.43
2017-12-20T17:56:43.858Z,102666.73
2017-12-20T17:59:12.198Z,102668.48
2017-12-20T18:01:40.525Z,102671.54
2017-12-20T18:04:08.879Z,102677.29
2017-12-20T18:06:37.214Z,102674.23
2017-12-20T18:09:06.434Z,102681.67
2017-12-20T18:11:34.762Z,102688.73
2017-12-20T18:14:03.124Z,102695.80
2017-12-20T18:16:31.554Z,102698.00
2017-12-20T18:18:59.883Z,102707.66
2017-12-20T18:21:28.227Z,102699.74
2017-12-20T18:23:56.580Z,102696.67
2017-12-20T18:26:24.902Z,102687.84
2017-12-20T18:28:54.086Z,102689.64
2017-12-20T18:31:22.418Z,102694.45
2017-12-20T18:33:50.807Z,102692.70
2017-12-20T18:36:19.292Z,102685.21
2017-12-20T18:38:47.652Z,102682.10
2017-12-20T18:41:16.010Z,102680.38
2017-12-20T18:43:44.344Z,102683.45
2017-12-20T18:46:12.698Z,102685.63
2017-12-20T18:48:41.107Z,102694.41
2017-12-20T18:51:09.490Z,102699.30
2017-12-20T18:53:37.829Z,102697.08
2017-12-20T18:56:07.198Z,102697.08
2017-12-20T18:58:35.533Z,102695.77
2017-12-20T19:01:03.887Z,102692.70
2017-12-20T19:03:32.221Z,102691.36
2017-12-20T19:06:00.585Z,102676.84
2017-12-20T19:08:28.920Z,102664.08
2017-12-20T19:10:57.279Z,102669.81
2017-12-20T19:13:25.610Z,102672.89
2017-12-20T19:15:53.970Z,102668.48
2017-12-20T19:18:22.316Z,102662.78
2017-12-20T19:20:50.665Z,102658.79
2017-12-20T19:23:18.993Z,102661.01
2017-12-20T19:25:49.086Z,102656.59
2017-12-20T19:28:17.445Z,102640.75
2017-12-20T19:30:45.778Z,102642.95
2017-12-20T19:33:14.114Z,102653.49
2017-12-20T19:35:43.448Z,102665.37
2017-12-20T19:38:11.783Z,102659.67
2017-12-20T19:40:40.135Z,102668.46
2017-12-20T19:43:08.474Z,102676.39
2017-12-20T19:45:36.874Z,102681.67
2017-12-20T19:48:05.211Z,102685.21
2017-12-20T19:50:33.558Z,102687.85
2017-12-20T19:53:01.996Z,102683.44
2017-12-20T19:55:30.491Z,102690.05
2017-12-20T19:57:58.834Z,102690.93
2017-12-20T20:00:27.221Z,102692.26
2017-12-20T20:02:55.566Z,102694.87
2017-12-20T20:05:23.967Z,102692.69
2017-12-20T20:07:52.320Z,102686.09
2017-12-20T20:10:20.692Z,102686.96
2017-12-20T20:12:49.025Z,102689.16
2017-12-20T20:15:17.378Z,102691.37
2017-12-20T20:17:46.338Z,102687.41
2017-12-20T20:20:14.690Z,102683.91
2017-12-20T20:22:43.067Z,102673.34
2017-12-20T20:25:12.278Z,102683.04
2017-12-20T20:27:40.740Z,102683.92
2017-12-20T20:30:09.978Z,102677.75
2017-12-20T20:32:38.306Z,102681.72
2017-12-20T20:35:06.683Z,102682.14
2017-12-20T20:37:35.011Z,102686.56
2017-12-20T20:40:03.350Z,102698.45
2017-12-20T20:42:31.713Z,102703.73
2017-12-20T20:45:00.047Z,102709.00
2017-12-20T20:47:28.409Z,102714.30
2017-12-20T20:49:59.742Z,102702.86
2017-12-20T20:52:31.126Z,102680.82
2017-12-20T20:54:59.458Z,102667.61
2017-12-20T20:57:27.816Z,102684.35
2017-12-20T20:59:56.151Z,102684.80
2017-12-20T21:02:24.506Z,102676.86
2017-12-20T21:04:52.838Z,102664.09
2017-12-20T21:07:21.210Z,102656.63
2017-12-20T21:09:49.530Z,102651.77
2017-12-20T21:12:18.015Z,102637.69
2017-12-20T21:14:47.396Z,102647.79
2017-12-20T21:17:15.802Z,102656.16
2017-12-20T21:19:44.744Z,102657.94
2017-12-20T21:22:13.134Z,102663.22
2017-12-20T21:24:41.674Z,102652.66
2017-12-20T21:27:10.239Z,102653.55
2017-12-20T21:29:38.698Z,102659.25
2017-12-20T21:32:07.066Z,102665.42
2017-12-20T21:34:35.405Z,102662.77
2017-12-20T21:37:03.935Z,102670.27
2017-12-20T21:39:32.363Z,102665.84
2017-12-20T21:42:00.779Z,102672.91
2017-12-20T21:44:29.115Z,102662.78
2017-12-20T21:46:57.472Z,102653.08
2017-12-20T21:49:25.802Z,102656.16
2017-12-20T21:51:54.163Z,102654.41
2017-12-20T21:54:22.541Z,102665.84
2017-12-20T21:56:50.900Z,102653.08
2017-12-20T21:59:19.237Z,102646.50
2017-12-20T22:01:47.590Z,102654.41
2017-12-20T22:04:15.979Z,102653.52
2017-12-20T22:06:44.324Z,102657.50
2017-12-20T22:09:12.661Z,102655.27
2017-12-20T22:11:41.042Z,102650.43
2017-12-20T22:14:09.379Z,102644.28
2017-12-20T22:16:37.806Z,102643.40
2017-12-20T22:19:06.229Z,102655.27
2017-12-20T22:21:34.595Z,102652.65
2017-12-20T22:24:02.926Z,102660.58
2017-12-20T22:26:31.283Z,102654.41
2017-12-20T22:28:59.619Z,102658.80
2017-12-20T22:31:28.549Z,102655.28
2017-12-20T22:33:56.883Z,102663.23
2017-12-20T22:36:25.233Z,102668.50
2017-12-20T22:38:53.569Z,102669.39
2017-12-20T22:41:22.659Z,102654.84
2017-12-20T22:43:51.051Z,102644.30
2017-12-20T22:46:19.438Z,102646.94
2017-12-20T22:48:47.778Z,102653.55
2017-12-20T22:51:16.110Z,102659.27
2017-12-20T22:53:44.471Z,102657.92
2017-12-20T22:56:12.801Z,102663.65
2017-12-20T22:58:41.160Z,102664.98
2017-12-20T23:01:09.496Z,102657.94
2017-12-20T23:03:37.843Z,102660.59
2017-12-20T23:06:07.158Z,102663.22
2017-12-20T23:08:35.510Z,102663.22
2017-12-20T23:11:03.851Z,102666.73
2017-12-20T23:13:32.265Z,102665.43
2017-12-20T23:16:00.598Z,102657.48
2017-12-20T23:21:08.406Z,102658.80
2017-12-20T23:23:36.821Z,102658.35
2017-12-20T23:26:05.159Z,102659.23
2017-12-20T23:28:33.514Z,102655.28
2017-12-20T23:31:01.849Z,102659.67
2017-12-20T23:33:30.201Z,102660.11
2017-12-20T23:35:58.539Z,102662.77
2017-12-20T23:38:27.835Z,102655.72
2017-12-20T23:40:56.399Z,102662.33
2017-12-20T23:43:25.066Z,102660.11
2017-12-20T23:45:55.307Z,102652.20
2017-12-20T23:48:23.662Z,102654.41
2017-12-20T23:50:51.998Z,102648.70
2017-12-20T23:53:20.354Z,102652.65
2017-12-20T23:55:48.681Z,102645.59
2017-12-20T23:58:17.035Z,102642.95
